Time;durP1;ratioP1;P1;durP2;ratioP2;P2;SDS_P1;SDS_P2;PMS_P1;PMS_P2;Temp;Humidity;BMP_temperature;BMP_pressure;BME280_temperature;BME280_humidity;BME280_pressure;Samples;Min_cycle;Max_cycle;Signal;HPM_P1;HPM_P2
2022/10/26 00:02:04;;;;;;;14.07;6.95;;;;;;;9.92;100.00;101481.25;7372087;19;20015;-72
2022/10/26 00:04:34;;;;;;;14.80;7.28;;;;;;;9.92;100.00;101478.63;7374868;19;20382;-72
2022/10/26 00:07:04;;;;;;;13.00;7.15;;;;;;;9.92;100.00;101481.25;7371612;19;20019;-73
2022/10/26 00:09:34;;;;;;;15.07;7.78;;;;;;;9.92;100.00;101480.38;7374986;19;20015;-72
2022/10/26 00:12:07;;;;;;;16.77;8.02;;;;;;;9.91;100.00;101474.25;7372165;19;20022;-72
2022/10/26 00:14:36;;;;;;;14.18;6.97;;;;;;;9.91;100.00;101473.34;7370913;19;20006;-73
2022/10/26 00:17:06;;;;;;;14.70;8.00;;;;;;;9.90;100.00;101461.09;7372948;19;20270;-72
2022/10/26 00:19:37;;;;;;;14.98;7.97;;;;;;;9.90;100.00;101466.34;7372474;19;20031;-73
2022/10/26 00:22:06;;;;;;;16.50;7.68;;;;;;;9.86;100.00;101460.13;7374810;19;20022;-72
2022/10/26 00:24:36;;;;;;;14.85;7.97;;;;;;;9.85;100.00;101463.59;7373005;19;20011;-72
2022/10/26 00:27:08;;;;;;;15.15;7.90;;;;;;;9.86;100.00;101454.00;7372886;19;20014;-72
2022/10/26 00:29:38;;;;;;;14.73;8.13;;;;;;;9.85;100.00;101447.88;7372219;19;20010;-72
2022/10/26 00:32:08;;;;;;;12.77;6.47;;;;;;;9.87;100.00;101451.44;7371836;19;20014;-73
2022/10/26 00:34:38;;;;;;;18.73;7.95;;;;;;;9.87;100.00;101445.31;7375800;19;20021;-72
2022/10/26 00:37:08;;;;;;;16.52;7.35;;;;;;;9.88;100.00;101442.72;7378902;19;20011;-72
2022/10/26 00:39:38;;;;;;;16.77;7.70;;;;;;;9.89;100.00;101444.50;7377892;19;20093;-72
2022/10/26 00:42:13;;;;;;;18.40;8.13;;;;;;;9.90;100.00;101441.03;7372851;19;20039;-73
2022/10/26 00:45:01;;;;;;;14.50;7.55;;;;;;;9.91;100.00;101442.81;7371941;19;20541;-73
2022/10/26 00:47:37;;;;;;;13.25;7.70;;;;;;;9.93;100.00;101446.34;7382157;19;20095;-72
2022/10/26 00:50:12;;;;;;;15.27;7.45;;;;;;;9.93;100.00;101446.34;7376637;19;20016;-73
2022/10/26 00:52:42;;;;;;;12.93;6.90;;;;;;;9.94;100.00;101450.75;7375131;19;20010;-73
2022/10/26 00:55:12;;;;;;;13.40;7.38;;;;;;;9.96;100.00;101443.81;7378700;19;20011;-72
2022/10/26 00:57:45;;;;;;;12.23;6.70;;;;;;;9.96;100.00;101440.28;7380416;19;20011;-71
2022/10/26 01:00:15;;;;;;;15.95;7.43;;;;;;;9.97;100.00;101439.44;7377138;19;20010;-72
2022/10/26 01:02:47;;;;;;;13.35;6.63;;;;;;;9.99;100.00;101436.03;7381590;19;20010;-71
2022/10/26 01:05:19;;;;;;;13.07;7.18;;;;;;;9.99;100.00;101432.50;7377624;19;20006;-71
2022/10/26 01:07:50;;;;;;;14.07;7.63;;;;;;;10.00;100.00;101427.31;7378336;19;20017;-72
2022/10/26 01:10:20;;;;;;;12.77;6.00;;;;;;;10.02;100.00;101430.84;7381339;19;20007;-71
2022/10/26 01:12:52;;;;;;;14.38;6.95;;;;;;;10.05;100.00;101427.41;7377573;19;20011;-71
2022/10/26 01:15:26;;;;;;;14.60;6.32;;;;;;;10.06;100.00;101424.84;7381325;19;20042;-71
2022/10/26 01:17:59;;;;;;;14.85;6.63;;;;;;;10.08;100.00;101419.63;7378063;19;20522;-71
2022/10/26 01:20:49;;;;;;;;;;;;;;;10.11;100.00;101422.34;7378810;19;20144;-71
2022/10/26 01:23:27;;;;;;;12.38;6.38;;;;;;;10.11;100.00;101422.34;7375749;19;19918;-73
2022/10/26 01:26:26;;;;;;;12.82;6.97;;;;;;;10.12;100.00;101405.75;7377552;19;20177;-72
2022/10/26 01:29:23;;;;;;;14.18;6.70;;;;;;;10.11;100.00;101406.59;7372611;19;20014;-71
2022/10/26 01:32:01;;;;;;;14.07;6.53;;;;;;;10.11;100.00;101397.00;7376878;19;20015;-68
2022/10/26 01:34:36;;;;;;;13.02;6.22;;;;;;;10.13;100.00;101402.28;7377712;19;20007;-68
2022/10/26 01:37:12;;;;;;;13.00;6.40;;;;;;;10.15;100.00;101401.47;7374221;19;20363;-68
2022/10/26 01:39:48;;;;;;;15.80;6.88;;;;;;;10.21;100.00;101418.22;7371672;19;20018;-68
2022/10/26 01:42:19;;;;;;;13.45;7.07;;;;;;;10.19;100.00;101409.41;7373665;19;20501;-68
2022/10/26 01:44:53;;;;;;;14.75;6.55;;;;;;;10.21;100.00;101402.50;7377017;19;20010;-68
2022/10/26 01:47:27;;;;;;;13.40;6.63;;;;;;;10.20;100.00;101408.59;7377751;19;20464;-68
2022/10/26 01:50:00;;;;;;;16.63;6.82;;;;;;;10.23;100.00;101398.19;7376909;19;20232;-69
2022/10/26 01:52:30;;;;;;;11.07;6.53;;;;;;;10.22;100.00;101396.41;7375285;19;20029;-68
2022/10/26 01:55:03;;;;;;;13.77;7.05;;;;;;;10.20;100.00;101380.66;7378030;19;20110;-68
2022/10/26 01:57:36;;;;;;;12.45;5.88;;;;;;;10.19;100.00;101381.47;7373894;19;20271;-68
2022/10/26 02:00:09;;;;;;;13.38;6.40;;;;;;;10.21;100.00;101384.16;7375315;19;20027;-68
2022/10/26 02:03:03;;;;;;;14.60;6.50;;;;;;;10.21;100.00;101373.66;7375814;19;20460;-68
2022/10/26 02:05:53;;;;;;;13.13;6.40;;;;;;;10.30;100.00;101377.38;7378220;19;20279;-68
2022/10/26 02:08:36;;;;;;;14.38;6.28;;;;;;;10.27;100.00;101372.06;7377142;19;20015;-68
2022/10/26 02:11:19;;;;;;;11.05;6.45;;;;;;;10.26;100.00;101382.53;7381529;19;20044;-68
2022/10/26 02:13:52;;;;;;;15.25;6.82;;;;;;;10.30;100.00;101384.38;7375528;19;20378;-68
2022/10/26 02:16:28;;;;;;;14.43;6.38;;;;;;;10.26;100.00;101380.78;7376042;19;20492;-68
2022/10/26 02:19:07;;;;;;;11.82;5.78;;;;;;;10.23;100.00;101377.22;7376201;19;20010;-68
2022/10/26 02:21:39;;;;;;;11.82;6.75;;;;;;;10.24;100.00;101374.63;7377416;19;20352;-68
2022/10/26 02:24:14;;;;;;;12.65;5.90;;;;;;;10.24;100.00;101384.22;7378157;19;20011;-68
2022/10/26 02:26:48;;;;;;;11.50;5.70;;;;;;;10.22;100.00;101383.31;7377263;19;20010;-68
2022/10/26 02:29:20;;;;;;;17.10;6.65;;;;;;;10.21;100.00;101377.19;7374856;19;20105;-68
2022/10/26 02:31:51;;;;;;;12.80;5.72;;;;;;;10.21;100.00;101371.06;7363395;19;21176;-68
2022/10/26 02:34:29;;;;;;;11.70;5.70;;;;;;;10.18;100.00;101368.31;7370789;19;20010;-68
2022/10/26 02:37:01;;;;;;;13.60;5.75;;;;;;;10.16;100.00;101365.66;7371870;19;20014;-68
2022/10/26 02:39:35;;;;;;;11.57;4.93;;;;;;;10.10;100.00;101365.53;7369508;19;20014;-68
2022/10/26 02:42:07;;;;;;;14.10;6.43;;;;;;;10.14;100.00;101360.38;7373408;19;20470;-68
2022/10/26 02:44:43;;;;;;;13.75;6.10;;;;;;;10.09;100.00;101363.75;7375229;19;20010;-68
2022/10/26 02:47:13;;;;;;;14.38;6.00;;;;;;;10.08;100.00;101367.22;7378371;19;20011;-68
2022/10/26 02:49:46;;;;;;;14.80;6.63;;;;;;;10.11;100.00;101362.94;7376992;19;20508;-68
2022/10/26 02:52:22;;;;;;;12.10;5.72;;;;;;;10.12;100.00;101369.94;7374800;19;20240;-68
2022/10/26 02:54:56;;;;;;;14.90;6.70;;;;;;;10.11;100.00;101368.19;7375325;19;20027;-71
2022/10/26 02:57:31;;;;;;;14.00;6.13;;;;;;;10.10;100.00;101370.75;7372463;19;20023;-73
2022/10/26 03:00:02;;;;;;;13.35;6.03;;;;;;;10.07;100.00;101366.34;7373649;19;20475;-71
2022/10/26 03:02:32;;;;;;;10.55;6.07;;;;;;;10.07;100.00;101357.59;7372125;19;20010;-72
2022/10/26 03:05:12;;;;;;;13.82;6.28;;;;;;;10.04;100.00;101361.03;7374537;19;20011;-72
2022/10/26 03:07:41;;;;;;;12.82;6.32;;;;;;;10.04;100.00;101355.78;7373901;19;20018;-69
2022/10/26 03:10:12;;;;;;;15.05;6.55;;;;;;;10.03;100.00;101350.50;7376195;19;20017;-69
2022/10/26 03:12:42;;;;;;;12.98;6.38;;;;;;;10.02;100.00;101347.00;7371962;19;20141;-69
2022/10/26 03:15:12;;;;;;;16.98;7.00;;;;;;;9.99;100.00;101346.94;7376076;19;20015;-69
2022/10/26 03:17:42;;;;;;;16.60;7.38;;;;;;;9.99;100.00;101348.66;7373168;19;20025;-69
2022/10/26 03:20:15;;;;;;;12.27;5.95;;;;;;;10.02;100.00;101346.13;7371597;19;20123;-69
2022/10/26 03:22:44;;;;;;;11.70;6.78;;;;;;;10.02;100.00;101338.25;7373732;19;20052;-69
2022/10/26 03:25:14;;;;;;;12.85;6.20;;;;;;;10.02;100.00;101335.63;7375793;19;20013;-69
2022/10/26 03:27:44;;;;;;;16.13;6.82;;;;;;;10.06;100.00;101338.34;7373219;19;20014;-69
2022/10/26 03:30:15;;;;;;;13.88;6.72;;;;;;;10.10;100.00;101339.31;7374214;19;20022;-69
2022/10/26 03:32:44;;;;;;;11.25;6.28;;;;;;;10.15;100.00;101343.81;7372735;19;20521;-69
2022/10/26 03:35:17;;;;;;;15.80;6.50;;;;;;;10.17;100.00;101346.47;7372176;19;20014;-68
2022/10/26 03:37:47;;;;;;;15.40;7.03;;;;;;;10.18;100.00;101347.34;7374770;19;20007;-69
2022/10/26 03:40:17;;;;;;;12.13;5.80;;;;;;;10.24;100.00;101337.03;7358144;19;20018;-68
2022/10/26 03:42:47;;;;;;;18.70;7.07;;;;;;;10.25;100.00;101338.81;7368554;19;20016;-69
2022/10/26 03:45:17;;;;;;;12.40;6.50;;;;;;;10.29;100.00;101335.41;7375025;19;20021;-69
2022/10/26 03:47:48;;;;;;;13.55;5.88;;;;;;;10.27;100.00;101331.88;7374376;19;20006;-68
2022/10/26 03:50:22;;;;;;;13.27;6.80;;;;;;;10.28;100.00;101323.16;7373705;19;20011;-68
2022/10/26 03:52:52;;;;;;;13.30;6.55;;;;;;;10.29;100.00;101330.16;7369059;19;20015;-70
2022/10/26 03:55:21;;;;;;;16.50;6.82;;;;;;;10.34;100.00;101328.53;7370260;19;20043;-69
2022/10/26 03:57:51;;;;;;;11.35;6.15;;;;;;;10.35;100.00;101330.31;7373938;19;20019;-69
2022/10/26 04:00:21;;;;;;;12.98;6.35;;;;;;;10.36;100.00;101321.59;7372923;19;20021;-69
2022/10/26 04:02:56;;;;;;;15.18;6.15;;;;;;;10.43;100.00;101326.97;7370075;19;20014;-69
2022/10/26 04:05:30;;;;;;;12.27;6.18;;;;;;;10.45;100.00;101327.00;7384940;19;20015;-69
2022/10/26 04:08:02;;;;;;;14.45;6.40;;;;;;;10.47;100.00;101323.56;7386118;19;20018;-69
2022/10/26 04:10:31;;;;;;;13.25;6.32;;;;;;;10.51;100.00;101321.88;7389145;19;20047;-68
2022/10/26 04:13:01;;;;;;;14.43;6.65;;;;;;;10.49;100.00;101319.22;7382294;19;20322;-69
2022/10/26 04:15:31;;;;;;;12.73;6.20;;;;;;;10.54;100.00;101329.81;7387775;19;20018;-69
2022/10/26 04:18:02;;;;;;;13.30;6.63;;;;;;;10.53;100.00;101322.81;7386889;19;20010;-68
2022/10/26 04:20:37;;;;;;;11.35;6.45;;;;;;;10.57;100.00;101327.25;7384907;19;20010;-68
2022/10/26 04:23:08;;;;;;;15.50;6.28;;;;;;;10.58;100.00;101329.03;7386416;19;20011;-68
2022/10/26 04:25:38;;;;;;;15.45;6.10;;;;;;;10.61;100.00;101331.72;7388502;19;20006;-69
2022/10/26 04:28:09;;;;;;;10.43;6.40;;;;;;;10.62;100.00;101328.25;7389931;19;20046;-69
2022/10/26 04:30:39;;;;;;;15.27;5.75;;;;;;;10.63;100.00;101329.13;7386227;19;20024;-69
2022/10/26 04:33:09;;;;;;;11.98;6.38;;;;;;;10.63;100.00;101322.13;7387406;19;20010;-69
2022/10/26 04:35:42;;;;;;;12.82;6.00;;;;;;;10.65;100.00;101330.94;7386450;19;20106;-69
2022/10/26 04:38:12;;;;;;;11.60;6.35;;;;;;;10.69;100.00;101335.38;7382977;19;20021;-69
2022/10/26 04:40:42;;;;;;;10.73;5.90;;;;;;;10.71;100.00;101328.44;7383205;19;20692;-69
2022/10/26 04:43:12;;;;;;;12.43;5.65;;;;;;;10.72;100.00;101317.09;7389423;19;20030;-69
2022/10/26 04:45:42;;;;;;;11.63;4.95;;;;;;;10.72;100.00;101319.72;7384440;19;20025;-69
2022/10/26 04:48:15;;;;;;;10.25;5.35;;;;;;;10.74;100.00;101320.63;7385365;19;20023;-68
2022/10/26 04:50:47;;;;;;;12.40;6.43;;;;;;;10.79;100.00;101324.22;7384854;19;20021;-69
2022/10/26 04:53:16;;;;;;;12.02;5.85;;;;;;;10.77;100.00;101323.31;7385416;19;20126;-69
2022/10/26 04:55:46;;;;;;;12.85;5.57;;;;;;;10.79;100.00;101326.84;7386747;19;20018;-69
2022/10/26 04:58:16;;;;;;;14.77;6.53;;;;;;;10.79;100.00;101321.59;7382339;19;20015;-69
2022/10/26 05:00:46;;;;;;;12.50;5.43;;;;;;;10.79;100.00;101324.22;7379208;19;20039;-69
2022/10/26 05:03:16;;;;;;;14.10;5.90;;;;;;;10.83;100.00;101327.78;7384073;19;20015;-69
2022/10/26 05:05:49;;;;;;;13.20;5.47;;;;;;;10.84;100.00;101332.19;7381930;19;20011;-68
2022/10/26 05:08:18;;;;;;;12.73;5.65;;;;;;;10.86;100.00;101330.47;7383771;19;20021;-68
2022/10/26 05:10:50;;;;;;;14.68;6.15;;;;;;;10.87;100.00;101331.34;7383896;19;20017;-69
2022/10/26 05:13:20;;;;;;;13.13;5.47;;;;;;;10.91;100.00;101325.31;7381907;19;20031;-69
2022/10/26 05:15:49;;;;;;;15.20;5.95;;;;;;;10.92;100.00;101317.47;7381992;19;20011;-69
2022/10/26 05:18:19;;;;;;;12.55;5.53;;;;;;;10.96;100.00;101316.69;7380006;19;20037;-68
2022/10/26 05:20:54;;;;;;;22.15;5.78;;;;;;;11.00;100.00;101323.75;7369268;19;20029;-68
2022/10/26 05:23:24;;;;;;;14.90;5.53;;;;;;;11.03;100.00;101323.81;7375777;19;20017;-68
2022/10/26 05:25:54;;;;;;;13.13;5.57;;;;;;;11.05;100.00;101322.09;7377150;19;20339;-69
2022/10/26 05:28:23;;;;;;;10.30;5.65;;;;;;;11.09;100.00;101323.94;7375012;19;20014;-69
2022/10/26 05:30:53;;;;;;;11.05;5.38;;;;;;;11.21;100.00;101320.66;7376553;19;20015;-69
2022/10/26 05:33:23;;;;;;;11.23;6.05;;;;;;;11.19;100.00;101314.50;7376660;19;20013;-68
2022/10/26 05:35:58;;;;;;;9.43;5.53;;;;;;;11.21;100.00;101323.28;7376074;19;20546;-68
2022/10/26 05:38:27;;;;;;;14.00;5.40;;;;;;;11.23;100.00;101311.06;7376634;19;20412;-68
2022/10/26 05:40:57;;;;;;;12.15;5.53;;;;;;;11.24;100.00;101317.19;7369900;19;20566;-69
2022/10/26 05:43:27;;;;;;;12.82;5.28;;;;;;;11.24;100.00;101307.59;7380711;19;20026;-69
2022/10/26 05:45:57;;;;;;;14.20;5.43;;;;;;;11.25;100.00;101306.72;7377140;19;20138;-69
2022/10/26 05:48:27;;;;;;;11.10;5.15;;;;;;;11.24;100.00;101312.84;7380985;19;20316;-70
2022/10/26 05:51:00;;;;;;;9.10;4.93;;;;;;;11.27;100.00;101310.25;7378766;19;20006;-69
2022/10/26 05:53:30;;;;;;;;;;;;;;;11.24;100.00;101320.72;7376358;19;20070;-72
2022/10/26 05:56:00;;;;;;;10.98;4.57;;;;;;;11.22;100.00;101311.03;7373994;19;19939;-71
2022/10/26 05:58:38;;;;;;;12.02;4.50;;;;;;;11.24;100.00;101307.59;7377253;19;20021;-72
2022/10/26 06:01:21;;;;;;;11.18;5.13;;;;;;;11.20;100.00;101310.13;7373472;19;20473;-72
2022/10/26 06:04:01;;;;;;;;;;;;;;;11.17;100.00;101310.06;7379256;19;20018;-69
2022/10/26 06:06:41;;;;;;;13.27;4.95;;;;;;;11.14;100.00;101306.53;7377167;19;20458;-69
2022/10/26 06:09:12;;;;;;;11.07;5.10;;;;;;;11.15;100.00;101312.66;7373932;19;20039;-69
2022/10/26 06:11:43;;;;;;;13.48;5.05;;;;;;;11.11;100.00;101322.22;7376561;19;20010;-69
2022/10/26 06:14:13;;;;;;;14.10;5.13;;;;;;;11.16;100.00;101314.44;7373843;19;20045;-69
2022/10/26 06:16:56;;;;;;;9.85;4.82;;;;;;;11.13;100.00;101331.00;7378537;19;20014;-69
2022/10/26 06:19:36;;;;;;;13.95;5.25;;;;;;;11.11;100.00;101327.47;7377628;19;20080;-69
2022/10/26 06:22:23;;;;;;;7.97;4.82;;;;;;;11.16;100.00;101313.56;7377303;19;20014;-72
2022/10/26 06:25:03;;;;;;;12.50;5.45;;;;;;;11.13;100.00;101314.38;7375978;19;20082;-72
2022/10/26 06:27:43;;;;;;;10.98;5.03;;;;;;;11.11;100.00;101321.34;7370540;19;20045;-72
2022/10/26 06:30:13;;;;;;;14.15;5.65;;;;;;;11.12;100.00;101325.72;7377033;19;20022;-72
2022/10/26 06:32:47;;;;;;;13.93;4.68;;;;;;;11.08;100.00;101319.53;7373842;19;20112;-69
2022/10/26 06:35:28;;;;;;;12.57;5.10;;;;;;;11.04;100.00;101330.84;7373049;19;20018;-69
2022/10/26 06:38:06;;;;;;;14.10;5.13;;;;;;;11.04;100.00;101329.94;7381539;19;20063;-69
2022/10/26 06:40:39;;;;;;;9.55;4.80;;;;;;;11.06;100.00;101317.75;7373837;19;20747;-69
2022/10/26 06:43:14;;;;;;;;;;;;;;;11.06;100.00;101323.00;7376564;19;20093;-69
2022/10/26 06:45:49;;;;;;;9.10;4.70;;;;;;;11.10;100.00;101335.31;7373924;19;19918;-69
2022/10/26 06:48:27;;;;;;;10.73;5.10;;;;;;;11.11;100.00;101350.22;7369573;19;20025;-69
2022/10/26 06:50:57;;;;;;;12.07;5.00;;;;;;;11.16;100.00;101355.56;7373341;19;20015;-69
2022/10/26 06:53:35;;;;;;;10.75;4.88;;;;;;;11.16;100.00;101345.06;7369177;19;20026;-69
2022/10/26 06:56:05;;;;;;;11.77;4.68;;;;;;;11.18;100.00;101340.72;7369645;19;20512;-69
2022/10/26 06:58:37;;;;;;;12.65;5.05;;;;;;;11.18;100.00;101351.22;7368431;19;20701;-69
2022/10/26 07:01:08;;;;;;;12.30;5.00;;;;;;;11.20;100.00;101347.75;7370081;19;20014;-70
2022/10/26 07:03:40;;;;;;;10.60;4.47;;;;;;;11.19;100.00;101340.75;7377376;19;20090;-71
2022/10/26 07:06:11;;;;;;;10.52;4.80;;;;;;;11.19;100.00;101327.63;7374810;19;20018;-70
2022/10/26 07:08:44;;;;;;;10.60;4.68;;;;;;;11.18;100.00;101333.72;7374847;19;20447;-70
2022/10/26 07:11:14;;;;;;;11.65;4.60;;;;;;;11.21;100.00;101353.91;7362402;19;20035;-71
2022/10/26 07:13:43;;;;;;;10.73;4.93;;;;;;;11.25;100.00;101359.25;7372187;19;20046;-70
2022/10/26 07:16:13;;;;;;;11.55;4.60;;;;;;;11.31;100.00;101367.22;7376917;19;20006;-71
2022/10/26 07:18:45;;;;;;;12.73;5.13;;;;;;;11.43;100.00;101377.06;7373937;19;20014;-70
2022/10/26 07:21:14;;;;;;;10.80;4.60;;;;;;;11.47;100.00;101378.88;7377096;19;20007;-70
2022/10/26 07:23:46;;;;;;;11.82;5.03;;;;;;;11.55;100.00;101371.13;7371722;19;20014;-70
2022/10/26 07:26:16;;;;;;;14.70;5.45;;;;;;;11.56;100.00;101362.38;7380299;19;20031;-71
2022/10/26 07:28:50;;;;;;;11.02;5.00;;;;;;;11.63;100.00;101369.53;7377537;19;20115;-70
2022/10/26 07:31:19;;;;;;;11.95;5.28;;;;;;;11.69;100.00;101380.13;7375614;19;20015;-70
2022/10/26 07:33:49;;;;;;;10.95;4.68;;;;;;;11.78;100.00;101390.84;7376761;19;20011;-71
2022/10/26 07:36:19;;;;;;;11.25;4.88;;;;;;;11.88;100.00;101398.03;7377886;19;20007;-71
2022/10/26 07:38:53;;;;;;;10.50;4.40;;;;;;;12.00;100.00;101398.22;7376291;19;20030;-70
2022/10/26 07:41:23;;;;;;;12.75;4.20;;;;;;;12.17;100.00;101394.97;7376260;19;20014;-70
2022/10/26 07:43:52;;;;;;;15.18;4.68;;;;;;;12.21;100.00;101396.78;7379909;19;20006;-70
2022/10/26 07:46:22;;;;;;;11.88;4.35;;;;;;;12.32;100.00;101389.94;7372839;19;20010;-71
2022/10/26 07:48:52;;;;;;;11.18;4.70;;;;;;;12.37;100.00;101404.06;7374472;19;20017;-71
2022/10/26 07:51:24;;;;;;;14.70;4.93;;;;;;;12.49;100.00;101414.72;7373260;19;20490;-71
2022/10/26 07:53:56;;;;;;;10.65;4.70;;;;;;;12.59;100.00;101421.00;7373932;19;20364;-71
2022/10/26 07:56:27;;;;;;;8.68;4.35;;;;;;;12.63;100.00;101412.28;7375396;19;20007;-71
2022/10/26 07:58:57;;;;;;;9.98;4.40;;;;;;;12.76;100.00;101419.50;7374488;19;20014;-71
2022/10/26 08:01:27;;;;;;;12.60;4.00;;;;;;;12.84;100.00;101424.88;7375584;19;20026;-71
2022/10/26 08:03:57;;;;;;;10.68;4.30;;;;;;;13.04;100.00;101413.72;7375935;19;20399;-71
2022/10/26 08:06:27;;;;;;;11.82;4.85;;;;;;;13.22;100.00;101413.09;7377903;19;20557;-71
2022/10/26 08:08:59;;;;;;;8.77;3.95;;;;;;;13.22;100.00;101421.00;7373838;19;20019;-71
2022/10/26 08:11:29;;;;;;;8.18;4.40;;;;;;;13.26;100.00;101406.13;7374282;19;20015;-71
2022/10/26 08:13:59;;;;;;;14.65;4.45;;;;;;;13.43;100.00;101409.81;7370746;19;20102;-71
2022/10/26 08:16:30;;;;;;;8.07;3.58;;;;;;;13.51;100.00;101405.50;7376639;19;20014;-71
2022/10/26 08:18:59;;;;;;;11.40;3.90;;;;;;;13.57;100.00;101402.91;7376552;19;20039;-71
2022/10/26 08:21:29;;;;;;;8.85;4.20;;;;;;;13.69;100.00;101397.75;7376487;19;20014;-71
2022/10/26 08:24:16;;;;;;;9.07;3.97;;;;;;;13.84;100.00;101397.00;7377432;19;20018;-71
2022/10/26 08:26:47;;;;;;;7.25;4.07;;;;;;;13.86;100.00;101391.75;7378818;19;20029;-71
2022/10/26 08:29:17;;;;;;;11.32;4.28;;;;;;;13.91;100.00;101396.19;7367886;19;20018;-72
2022/10/26 08:31:49;;;;;;;9.68;3.95;;;;;;;14.04;100.00;101411.25;7372260;19;20018;-72
2022/10/26 08:34:18;;;;;;;8.50;4.55;;;;;;;14.14;100.00;101403.41;7368863;19;20014;-71
2022/10/26 08:36:49;;;;;;;9.52;4.10;;;;;;;14.17;100.00;101414.88;7371553;19;20025;-71
2022/10/26 08:39:21;;;;;;;10.25;4.35;;;;;;;14.36;100.00;101423.81;7365818;19;20011;-71
2022/10/26 08:41:56;;;;;;;10.38;4.10;;;;;;;14.51;100.00;101434.50;7369657;19;20013;-71
2022/10/26 08:44:31;;;;;;;11.35;5.13;;;;;;;14.59;100.00;101430.13;7366023;19;20019;-71
2022/10/26 08:47:07;;;;;;;8.65;3.75;;;;;;;14.75;100.00;101435.50;7367660;19;20017;-71
2022/10/26 08:49:44;;;;;;;12.55;4.00;;;;;;;14.83;100.00;101441.69;7367500;19;20305;-69
2022/10/26 08:52:19;;;;;;;8.98;3.60;;;;;;;14.86;100.00;101437.31;7376973;19;20025;-69
2022/10/26 08:54:55;;;;;;;10.15;4.13;;;;;;;14.84;100.00;101446.09;7376774;19;20021;-69
2022/10/26 08:57:29;;;;;;;13.02;4.55;;;;;;;14.89;100.00;101452.28;7381255;19;20027;-69
2022/10/26 09:00:03;;;;;;;9.32;4.30;;;;;;;14.85;100.00;101447.88;7381411;19;20021;-69
2022/10/26 09:02:32;;;;;;;13.20;4.10;;;;;;;14.85;100.00;101445.22;7378439;19;20655;-70
2022/10/26 09:05:04;;;;;;;10.43;4.38;;;;;;;14.93;100.00;101446.16;7381554;19;20019;-69
2022/10/26 09:07:47;;;;;;;9.50;4.20;;;;;;;15.03;100.00;101447.97;7380176;19;20025;-69
2022/10/26 09:10:36;;;;;;;;;;;;;;;15.23;100.00;101450.69;7378733;19;20630;-69
2022/10/26 09:13:13;;;;;;;11.40;4.45;;;;;;;15.34;100.00;101460.44;7379572;19;19929;-70
2022/10/26 09:15:55;;;;;;;8.25;3.92;;;;;;;15.50;100.00;101466.66;7378805;19;20055;-69
2022/10/26 09:18:36;;;;;;;10.43;4.05;;;;;;;15.48;100.00;101464.88;7378602;19;20014;-72
2022/10/26 09:21:17;;;;;;;13.00;3.80;;;;;;;15.52;100.00;101474.59;7380546;19;20017;-73
2022/10/26 09:23:59;;;;;;;9.50;4.18;;;;;;;15.63;100.00;101475.50;7376706;19;20014;-72
2022/10/26 09:26:41;;;;;;;9.73;4.30;;;;;;;15.72;100.00;101469.34;7378964;19;20014;-69
2022/10/26 09:29:15;;;;;;;9.57;4.45;;;;;;;15.76;100.00;101460.56;7374899;19;20540;-69
2022/10/26 09:31:49;;;;;;;10.63;4.15;;;;;;;15.96;100.00;101474.69;7382219;19;20018;-69
2022/10/26 09:34:28;;;;;;;11.88;4.13;;;;;;;16.13;100.00;101466.78;7377833;19;20015;-69
2022/10/26 09:36:58;;;;;;;8.07;3.75;;;;;;;16.28;100.00;101472.06;7380479;19;20015;-69
2022/10/26 09:39:38;;;;;;;9.13;3.60;;;;;;;16.42;100.00;101470.28;7374697;19;20017;-72
2022/10/26 09:42:18;;;;;;;8.52;3.35;;;;;;;16.48;100.00;101475.59;7376115;19;20010;-72
2022/10/26 09:44:56;;;;;;;11.98;3.78;;;;;;;16.58;100.00;101489.69;7375788;19;20019;-72
2022/10/26 09:47:33;;;;;;;10.82;3.40;;;;;;;16.52;100.00;101493.25;7378632;19;20027;-71
2022/10/26 09:50:17;;;;;;;8.50;3.83;;;;;;;16.49;100.00;101498.53;7378744;19;20006;-70
2022/10/26 09:52:47;;;;;;;8.55;3.30;;;;;;;16.41;100.00;101505.59;7373527;19;20070;-72
2022/10/26 09:55:19;;;;;;;8.77;3.72;;;;;;;16.49;100.00;101502.94;7376081;19;20110;-72
2022/10/26 09:57:55;;;;;;;11.85;4.57;;;;;;;16.41;100.00;101505.59;7373838;19;20010;-72
2022/10/26 10:00:27;;;;;;;12.38;4.90;;;;;;;16.50;100.00;101510.88;7376842;19;20010;-72
2022/10/26 10:02:58;;;;;;;8.40;4.05;;;;;;;16.48;100.00;101520.59;7378517;19;21840;-72
2022/10/26 10:05:33;;;;;;;11.95;4.43;;;;;;;16.51;100.00;101525.00;7381155;19;20033;-72
2022/10/26 10:08:23;;;;;;;13.43;4.28;;;;;;;16.49;100.00;101527.66;7376809;19;20029;-73
2022/10/26 10:10:58;;;;;;;9.10;4.15;;;;;;;16.45;100.00;101535.59;7380752;19;20043;-72
2022/10/26 10:13:32;;;;;;;10.75;4.43;;;;;;;16.42;100.00;101546.19;7379197;19;20079;-72
2022/10/26 10:16:07;;;;;;;9.02;4.80;;;;;;;16.43;100.00;101543.53;7379196;19;20010;-72
2022/10/26 10:18:37;;;;;;;9.27;4.00;;;;;;;16.33;100.00;101552.34;7380048;19;20018;-72
2022/10/26 10:21:09;;;;;;;10.82;3.80;;;;;;;16.38;100.00;101550.59;7377328;19;20021;-72
2022/10/26 10:23:50;;;;;;;7.88;3.92;;;;;;;16.30;100.00;101563.81;7379964;19;20018;-72
2022/10/26 10:26:20;;;;;;;7.68;4.43;;;;;;;16.33;100.00;101563.84;7376891;19;20011;-72
2022/10/26 10:29:02;;;;;;;8.85;4.38;;;;;;;16.31;100.00;101572.66;7377648;19;20106;-71
2022/10/26 10:31:34;;;;;;;10.13;4.25;;;;;;;16.33;100.00;101570.88;7377055;19;20562;-72
2022/10/26 10:34:17;;;;;;;11.10;4.40;;;;;;;16.45;100.00;101562.97;7377621;19;20058;-72
2022/10/26 10:36:47;;;;;;;10.35;4.70;;;;;;;16.51;100.00;101565.63;7377001;19;20061;-71
2022/10/26 10:39:36;;;;;;;9.18;4.88;;;;;;;16.56;100.00;101563.84;7376557;19;20025;-72
2022/10/26 10:42:09;;;;;;;10.18;4.57;;;;;;;16.74;100.00;101567.38;7378092;19;20022;-71
2022/10/26 10:44:41;;;;;;;9.15;4.72;;;;;;;16.88;100.00;101569.13;7375566;19;20015;-72
2022/10/26 10:47:21;;;;;;;10.70;4.25;;;;;;;16.93;100.00;101577.09;7374860;19;20043;-72
2022/10/26 10:50:02;;;;;;;10.32;4.55;;;;;;;17.09;100.00;101573.53;7373720;19;20018;-71
2022/10/26 10:52:34;;;;;;;9.23;4.55;;;;;;;17.15;100.00;101581.47;7376180;19;20082;-72
2022/10/26 10:55:19;;;;;;;13.43;4.32;;;;;;;17.27;100.00;101572.59;7374056;19;20049;-71
2022/10/26 10:58:10;;;;;;;7.75;4.45;;;;;;;17.52;100.00;101581.38;7372678;19;20017;-71
2022/10/26 11:00:48;;;;;;;10.40;4.47;;;;;;;17.61;100.00;101590.19;7375704;19;20047;-72
2022/10/26 11:03:34;;;;;;;11.02;4.55;;;;;;;17.48;100.00;101582.25;7371900;19;20161;-72
2022/10/26 11:06:12;;;;;;;11.23;4.20;;;;;;;17.74;100.00;101590.13;7375560;19;20007;-71
2022/10/26 11:08:47;;;;;;;9.32;4.50;;;;;;;17.72;100.00;101595.44;7372292;19;20010;-72
2022/10/26 11:11:21;;;;;;;9.23;4.35;;;;;;;17.56;100.00;101594.63;7370674;19;20045;-72
2022/10/26 11:13:57;;;;;;;12.30;4.32;;;;;;;17.64;100.00;101602.53;7371906;19;20034;-72
2022/10/26 11:16:33;;;;;;;6.50;3.70;;;;;;;17.62;100.00;101613.16;7374992;19;20017;-72
2022/10/26 11:19:14;;;;;;;10.18;4.20;;;;;;;17.75;100.00;101611.34;7376746;19;20018;-71
2022/10/26 11:21:48;;;;;;;9.95;4.35;;;;;;;17.75;100.00;101615.78;7376271;19;20017;-72
2022/10/26 11:24:24;;;;;;;8.82;4.18;;;;;;;17.77;100.00;101620.19;7372423;19;20025;-71
2022/10/26 11:27:00;;;;;;;7.25;3.47;;;;;;;17.91;100.00;101620.13;7377453;19;20459;-72
2022/10/26 11:29:46;;;;;;;9.68;3.20;;;;;;;17.79;100.00;101620.19;7373651;19;20010;-72
2022/10/26 11:32:24;;;;;;;9.60;3.78;;;;;;;17.65;100.00;101628.19;7372235;19;20033;-71
2022/10/26 11:35:00;;;;;;;13.93;4.13;;;;;;;17.69;100.00;101624.63;7374939;19;20014;-71
2022/10/26 11:37:36;;;;;;;8.13;3.15;;;;;;;17.71;100.00;101621.97;7373056;19;20022;-72
2022/10/26 11:40:24;;;;;;;6.15;3.28;;;;;;;17.92;100.00;101630.72;7374539;19;20029;-72
2022/10/26 11:43:05;;;;;;;9.55;3.42;;;;;;;18.00;100.00;101629.81;7370013;19;20019;-71